createdAt,value
2019-01-04T00:01:40.127Z,5.40
2019-01-04T00:04:08.645Z,7.05
2019-01-04T00:06:37.068Z,6.45
2019-01-04T00:09:06.625Z,5.85
2019-01-04T00:11:36.598Z,6.87
2019-01-04T00:14:10.007Z,3.83
2019-01-04T00:16:38.457Z,7.15
2019-01-04T00:19:07.576Z,8.88
2019-01-04T00:21:36.070Z,5.22
2019-01-04T00:24:05.072Z,5.40
2019-01-04T00:26:33.533Z,5.00
2019-01-04T00:29:01.985Z,5.45
2019-01-04T00:31:30.417Z,6.65
2019-01-04T00:33:58.881Z,4.70
2019-01-04T00:36:27.316Z,3.92
2019-01-04T00:38:55.806Z,7.75
2019-01-04T00:41:24.232Z,3.95
2019-01-04T00:43:52.718Z,4.58
2019-01-04T00:46:21.157Z,6.45
2019-01-04T00:48:49.630Z,5.53
2019-01-04T00:51:18.083Z,5.03
2019-01-04T00:53:46.520Z,5.90
2019-01-04T00:56:18.026Z,5.00
2019-01-04T00:59:09.254Z,5.15
2019-01-04T01:02:10.910Z,4.62
2019-01-04T01:04:57.066Z,7.33
2019-01-04T01:07:34.053Z,3.15
2019-01-04T01:10:23.396Z,8.38
2019-01-04T01:13:06.335Z,3.67
2019-01-04T01:15:55.934Z,3.17
2019-01-04T01:18:48.298Z,5.55
2019-01-04T01:21:35.958Z,3.33
2019-01-04T01:24:36.180Z,5.25
2019-01-04T01:27:41.089Z,9.63
2019-01-04T01:30:30.617Z,5.08
2019-01-04T01:33:11.110Z,3.33
2019-01-04T01:35:56.954Z,6.50
2019-01-04T01:38:48.853Z,6.08
2019-01-04T01:41:46.082Z,4.47
2019-01-04T01:44:34.358Z,8.95
2019-01-04T01:47:08.632Z,9.40
2019-01-04T01:49:43.045Z,6.50
2019-01-04T01:52:23.564Z,6.67
2019-01-04T01:54:51.992Z,5.87
2019-01-04T01:57:20.443Z,5.35
2019-01-04T01:59:48.875Z,6.78
2019-01-04T02:02:17.323Z,6.65
2019-01-04T02:04:45.756Z,8.08
2019-01-04T02:07:14.199Z,7.83
2019-01-04T02:09:42.647Z,4.92
2019-01-04T02:12:11.109Z,8.23
2019-01-04T02:14:39.544Z,8.20
2019-01-04T02:17:08.009Z,7.87
2019-01-04T02:19:36.454Z,11.33
2019-01-04T02:22:04.897Z,7.45
2019-01-04T02:24:33.328Z,9.13
2019-01-04T02:27:01.784Z,12.10
2019-01-04T02:29:30.219Z,11.55
2019-01-04T02:31:58.683Z,10.20
2019-01-04T02:34:27.143Z,9.33
2019-01-04T02:36:55.670Z,14.60
2019-01-04T02:39:24.104Z,14.78
2019-01-04T02:41:52.565Z,9.68
2019-01-04T02:44:20.995Z,11.65
2019-01-04T02:46:49.446Z,9.55
2019-01-04T02:49:17.871Z,10.40
2019-01-04T02:51:46.413Z,15.53
2019-01-04T02:54:14.861Z,11.88
2019-01-04T02:56:43.305Z,15.60
2019-01-04T02:59:12.418Z,13.55
2019-01-04T03:01:40.865Z,14.75
2019-01-04T03:04:09.317Z,9.18
2019-01-04T03:06:37.753Z,17.12
2019-01-04T03:09:06.965Z,14.43
2019-01-04T03:11:35.379Z,15.85
2019-01-04T03:14:03.855Z,15.65
2019-01-04T03:16:32.275Z,15.05
2019-01-04T03:19:00.731Z,14.28
2019-01-04T03:21:29.179Z,16.15
2019-01-04T03:23:57.625Z,14.38
2019-01-04T03:26:26.073Z,20.52
2019-01-04T03:28:54.529Z,12.18
2019-01-04T03:31:22.961Z,12.53
2019-01-04T03:33:51.465Z,14.28
2019-01-04T03:36:19.905Z,21.60
2019-01-04T03:38:48.365Z,16.87
2019-01-04T03:41:16.801Z,15.68
2019-01-04T03:43:45.258Z,15.53
2019-01-04T03:46:13.705Z,18.10
2019-01-04T03:48:42.155Z,11.48
2019-01-04T03:51:10.597Z,13.00
2019-01-04T03:53:39.073Z,15.80
2019-01-04T03:56:07.519Z,13.20
2019-01-04T03:58:35.981Z,17.37
2019-01-04T04:01:04.425Z,18.92
2019-01-04T04:03:33.646Z,15.48
2019-01-04T04:06:02.094Z,17.37
2019-01-04T04:08:30.565Z,16.15
2019-01-04T04:10:59.016Z,21.00
2019-01-04T04:13:27.477Z,19.77
2019-01-04T04:15:55.916Z,17.25
2019-01-04T04:18:24.369Z,16.95
2019-01-04T04:20:52.809Z,16.80
2019-01-04T04:23:21.288Z,19.32
2019-01-04T04:25:49.763Z,17.02
2019-01-04T04:28:18.226Z,21.23
2019-01-04T04:30:46.664Z,27.85
2019-01-04T04:33:15.111Z,22.73
2019-01-04T04:35:43.559Z,18.80
2019-01-04T04:38:11.998Z,19.90
2019-01-04T04:40:40.455Z,17.40
2019-01-04T04:43:08.893Z,22.50
2019-01-04T04:45:37.371Z,19.17
2019-01-04T04:48:05.826Z,24.47
2019-01-04T04:50:34.272Z,22.85
2019-01-04T04:53:02.719Z,20.27
2019-01-04T04:55:31.185Z,22.73
2019-01-04T04:57:59.639Z,21.20
2019-01-04T05:00:28.091Z,25.20
2019-01-04T05:02:56.522Z,28.50
2019-01-04T05:05:24.973Z,24.02
2019-01-04T05:07:53.426Z,29.12
2019-01-04T05:10:21.886Z,30.27
2019-01-04T05:12:50.324Z,33.50
2019-01-04T05:15:18.776Z,27.77
2019-01-04T05:17:47.220Z,26.35
2019-01-04T05:20:16.607Z,29.55
2019-01-04T05:22:45.047Z,26.00
2019-01-04T05:25:13.515Z,28.73
2019-01-04T05:27:41.948Z,32.25
2019-01-04T05:30:10.404Z,30.48
2019-01-04T05:32:38.854Z,28.05
2019-01-04T05:35:07.334Z,29.32
2019-01-04T05:37:35.756Z,31.25
2019-01-04T05:40:06.142Z,32.28
2019-01-04T05:42:34.579Z,27.62
2019-01-04T05:45:03.029Z,28.60
2019-01-04T05:47:31.491Z,30.27
2019-01-04T05:49:59.923Z,30.00
2019-01-04T05:52:28.420Z,28.55
2019-01-04T05:54:56.819Z,29.02
2019-01-04T05:57:25.273Z,24.87
2019-01-04T05:59:53.708Z,26.93
2019-01-04T06:02:22.170Z,24.50
2019-01-04T06:04:50.631Z,26.20
2019-01-04T06:07:19.096Z,24.63
2019-01-04T06:09:47.542Z,24.70
2019-01-04T06:12:16.037Z,25.30
2019-01-04T06:14:44.465Z,29.18
2019-01-04T06:17:12.909Z,24.92
2019-01-04T06:19:41.344Z,25.77
2019-01-04T06:22:09.820Z,28.45
2019-01-04T06:24:38.259Z,25.70
2019-01-04T06:27:06.763Z,30.68
2019-01-04T06:29:35.199Z,25.82
2019-01-04T06:32:03.658Z,25.85
2019-01-04T06:34:32.109Z,27.58
2019-01-04T06:37:00.601Z,25.15
2019-01-04T06:39:29.034Z,24.30
2019-01-04T06:41:57.517Z,24.85
2019-01-04T06:44:25.960Z,28.67
2019-01-04T06:47:08.881Z,31.17
2019-01-04T06:49:37.317Z,25.68
2019-01-04T06:52:05.777Z,29.57
2019-01-04T06:55:10.681Z,23.75
2019-01-04T06:57:39.157Z,23.67
2019-01-04T07:00:09.037Z,24.27
2019-01-04T07:02:37.584Z,26.30
2019-01-04T07:05:06.865Z,25.27
2019-01-04T07:07:35.318Z,21.97
2019-01-04T07:10:04.697Z,33.20
2019-01-04T07:12:33.175Z,22.42
2019-01-04T07:15:01.605Z,20.80
2019-01-04T07:17:31.625Z,24.27
2019-01-04T07:20:00.152Z,28.27
2019-01-04T07:22:28.689Z,30.43
2019-01-04T07:24:57.123Z,26.35
2019-01-04T07:27:25.605Z,23.00
2019-01-04T07:29:54.045Z,25.95
2019-01-04T07:32:22.488Z,31.05
2019-01-04T07:34:50.939Z,30.77
2019-01-04T07:37:19.379Z,24.60
2019-01-04T07:39:47.843Z,29.57
2019-01-04T07:42:16.281Z,27.10
2019-01-04T07:44:44.754Z,29.32
2019-01-04T07:47:13.196Z,24.30
2019-01-04T07:49:41.688Z,35.00
2019-01-04T07:52:10.147Z,32.55
2019-01-04T07:54:38.598Z,26.25
2019-01-04T07:57:07.038Z,24.98
2019-01-04T07:59:35.516Z,30.70
2019-01-04T08:02:23.575Z,29.52
2019-01-04T08:04:52.062Z,27.25
2019-01-04T08:07:20.496Z,30.52
2019-01-04T08:09:48.956Z,27.93
2019-01-04T08:12:17.403Z,25.27
2019-01-04T08:14:45.883Z,22.73
2019-01-04T08:17:14.329Z,34.95
2019-01-04T08:19:42.800Z,27.07
2019-01-04T08:22:11.256Z,29.80
2019-01-04T08:24:39.714Z,29.20
2019-01-04T08:27:08.159Z,23.42
2019-01-04T08:29:36.726Z,21.02
2019-01-04T08:32:05.162Z,26.80
2019-01-04T08:34:33.630Z,26.30
2019-01-04T08:37:02.072Z,24.30
2019-01-04T08:39:30.552Z,25.62
2019-01-04T08:41:58.997Z,29.12
2019-01-04T08:44:27.456Z,28.90
2019-01-04T08:46:55.906Z,21.97
2019-01-04T08:49:24.395Z,23.05
2019-01-04T08:51:52.841Z,23.00
2019-01-04T08:54:21.324Z,21.48
2019-01-04T08:56:49.832Z,25.02
2019-01-04T08:59:18.290Z,72.42
2019-01-04T09:01:46.758Z,26.90
2019-01-04T09:04:15.218Z,21.48
2019-01-04T09:06:43.674Z,22.00
2019-01-04T09:09:12.125Z,20.68
2019-01-04T09:11:40.605Z,25.75
2019-01-04T09:14:09.089Z,21.25
2019-01-04T09:16:37.558Z,29.48
2019-01-04T09:19:06.085Z,21.33
2019-01-04T09:21:34.534Z,21.68
2019-01-04T09:24:02.976Z,20.48
2019-01-04T09:26:31.445Z,20.92
2019-01-04T09:28:59.895Z,18.95
2019-01-04T09:31:28.360Z,19.05
2019-01-04T09:33:57.138Z,18.20
2019-01-04T09:36:25.639Z,22.73
2019-01-04T09:38:54.093Z,18.95
2019-01-04T09:41:28.991Z,21.17
2019-01-04T09:43:57.465Z,20.70
2019-01-04T09:46:25.910Z,19.62
2019-01-04T09:48:54.391Z,30.70
2019-01-04T09:51:22.851Z,15.95
2019-01-04T09:53:51.308Z,18.00
2019-01-04T09:56:19.834Z,17.67
2019-01-04T09:58:48.231Z,17.75
2019-01-04T10:01:16.687Z,17.62
2019-01-04T10:03:45.151Z,19.15
2019-01-04T10:06:13.619Z,21.95
2019-01-04T10:08:44.990Z,16.07
2019-01-04T10:11:12.293Z,21.20
2019-01-04T10:13:40.751Z,15.35
2019-01-04T10:16:09.245Z,17.90
2019-01-04T10:18:37.729Z,22.25
2019-01-04T10:21:06.187Z,18.73
2019-01-04T10:23:34.691Z,23.25
2019-01-04T10:26:03.108Z,20.12
2019-01-04T10:28:31.569Z,18.37
2019-01-04T10:31:00.019Z,18.67
2019-01-04T10:33:28.516Z,16.93
2019-01-04T10:35:56.958Z,20.12
2019-01-04T10:38:25.418Z,20.88
2019-01-04T10:40:53.875Z,18.98
2019-01-04T10:43:22.333Z,18.73
2019-01-04T10:45:50.781Z,22.93
2019-01-04T10:48:19.259Z,19.70
2019-01-04T10:50:47.713Z,19.02
2019-01-04T10:53:16.177Z,19.42
2019-01-04T10:55:44.663Z,19.45
2019-01-04T10:58:13.135Z,20.52
2019-01-04T11:00:41.587Z,18.67
2019-01-04T11:03:10.066Z,19.20
2019-01-04T11:05:38.495Z,17.67
2019-01-04T11:08:07.028Z,14.70
2019-01-04T11:10:35.419Z,17.55
2019-01-04T11:13:03.876Z,18.02
2019-01-04T11:15:32.334Z,16.17
2019-01-04T11:18:00.845Z,21.07
2019-01-04T11:20:43.441Z,17.60
2019-01-04T11:23:35.829Z,16.75
2019-01-04T11:26:13.397Z,17.23
2019-01-04T11:28:56.914Z,15.72
2019-01-04T11:31:37.425Z,14.50
2019-01-04T11:34:18.124Z,18.45
2019-01-04T11:37:00.932Z,17.27
2019-01-04T11:39:35.510Z,13.10
2019-01-04T11:42:15.919Z,15.43
2019-01-04T11:45:02.669Z,16.30
2019-01-04T11:47:54.821Z,16.85
2019-01-04T11:50:50.489Z,12.98
2019-01-04T11:53:19.033Z,18.62
2019-01-04T11:55:47.501Z,15.88
2019-01-04T11:58:15.935Z,15.23
2019-01-04T12:00:44.406Z,13.55
2019-01-04T12:03:12.848Z,19.15
2019-01-04T12:05:41.325Z,15.18
2019-01-04T12:08:09.790Z,14.20
2019-01-04T12:10:38.246Z,13.03
2019-01-04T12:13:06.684Z,15.65
2019-01-04T12:15:35.162Z,15.25
2019-01-04T12:18:03.623Z,24.23
2019-01-04T12:20:32.070Z,14.75
2019-01-04T12:23:00.522Z,12.95
2019-01-04T12:25:28.984Z,14.58
2019-01-04T12:27:57.423Z,13.10
2019-01-04T12:30:25.890Z,13.75
2019-01-04T12:32:54.328Z,12.93
2019-01-04T12:35:22.790Z,11.88
2019-01-04T12:37:51.248Z,13.83
2019-01-04T12:40:19.732Z,12.20
2019-01-04T12:42:48.169Z,14.40
2019-01-04T12:45:16.713Z,9.98
2019-01-04T12:47:45.157Z,13.10
2019-01-04T12:50:13.636Z,12.37
2019-01-04T12:52:42.067Z,10.95
2019-01-04T12:55:10.569Z,11.20
2019-01-04T12:57:38.997Z,12.80
2019-01-04T13:00:10.954Z,10.00
2019-01-04T13:02:39.435Z,14.00
2019-01-04T13:05:07.832Z,12.98
2019-01-04T13:07:36.263Z,12.43
2019-01-04T13:10:05.447Z,13.62
2019-01-04T13:12:33.905Z,11.70
2019-01-04T13:15:02.345Z,9.00
2019-01-04T13:17:30.833Z,11.80
2019-01-04T13:19:59.282Z,12.25
2019-01-04T13:22:27.734Z,11.50
2019-01-04T13:24:56.179Z,11.85
2019-01-04T13:27:24.634Z,9.53
2019-01-04T13:29:53.075Z,10.25
2019-01-04T13:32:21.532Z,9.28
2019-01-04T13:34:49.968Z,9.55
2019-01-04T13:37:18.449Z,9.48
2019-01-04T13:39:46.891Z,10.58
2019-01-04T13:42:15.374Z,11.78
2019-01-04T13:44:43.817Z,9.35
2019-01-04T13:47:12.270Z,10.48
2019-01-04T13:49:40.720Z,10.55
2019-01-04T13:52:09.184Z,9.05
2019-01-04T13:54:37.610Z,12.23
2019-01-04T13:57:06.074Z,9.23
2019-01-04T13:59:34.554Z,9.25
2019-01-04T14:02:03.018Z,9.38
2019-01-04T14:04:31.457Z,11.83
2019-01-04T14:06:59.922Z,9.25
2019-01-04T14:09:29.279Z,8.45
2019-01-04T14:11:57.747Z,8.40
2019-01-04T14:14:26.183Z,9.68
2019-01-04T14:16:54.620Z,7.42
2019-01-04T14:19:23.069Z,7.95
2019-01-04T14:21:51.505Z,7.35
2019-01-04T14:24:19.939Z,8.63
2019-01-04T14:26:48.381Z,8.78
2019-01-04T14:29:16.840Z,13.70
2019-01-04T14:31:45.287Z,6.80
2019-01-04T14:34:13.745Z,10.58
2019-01-04T14:36:42.199Z,8.10
2019-01-04T14:39:10.654Z,99.32
2019-01-04T14:41:39.101Z,9.05
2019-01-04T14:44:07.584Z,7.35
2019-01-04T14:46:36.488Z,8.43
2019-01-04T14:49:04.943Z,8.23
2019-01-04T14:51:33.375Z,8.98
2019-01-04T14:54:01.844Z,8.55
2019-01-04T14:56:30.268Z,7.87
2019-01-04T14:58:58.770Z,7.12
2019-01-04T15:01:27.171Z,7.40
2019-01-04T15:03:55.623Z,8.28
2019-01-04T15:06:24.079Z,10.20
2019-01-04T15:08:52.554Z,9.68
2019-01-04T15:11:20.961Z,6.53
2019-01-04T15:13:49.435Z,9.33
2019-01-04T15:16:17.865Z,9.18
2019-01-04T15:18:46.325Z,10.78
2019-01-04T15:21:14.765Z,8.20
2019-01-04T15:23:43.233Z,9.60
2019-01-04T15:26:11.664Z,10.70
2019-01-04T15:28:40.092Z,8.33
2019-01-04T15:31:08.547Z,10.80
2019-01-04T15:33:36.991Z,10.25
2019-01-04T15:36:05.447Z,10.65
2019-01-04T15:38:36.398Z,9.50
2019-01-04T15:41:04.131Z,10.65
2019-01-04T15:43:32.582Z,10.98
2019-01-04T15:46:01.077Z,11.80
2019-01-04T15:48:29.532Z,13.88
2019-01-04T15:50:57.986Z,17.62
2019-01-04T15:53:26.480Z,12.10
2019-01-04T15:55:54.968Z,12.98
2019-01-04T15:58:23.406Z,13.50
2019-01-04T16:00:51.876Z,11.15
2019-01-04T16:03:20.326Z,13.50
2019-01-04T16:05:48.798Z,10.70
2019-01-04T16:08:17.235Z,10.85
2019-01-04T16:10:45.700Z,10.70
2019-01-04T16:13:14.164Z,16.12
2019-01-04T16:15:42.636Z,14.05
2019-01-04T16:18:11.102Z,14.50
2019-01-04T16:20:39.865Z,12.68
2019-01-04T16:23:08.316Z,11.18
2019-01-04T16:25:36.752Z,16.40
2019-01-04T16:28:05.242Z,12.40
2019-01-04T16:30:33.709Z,14.75
2019-01-04T16:33:02.208Z,11.33
2019-01-04T16:35:30.732Z,18.75
2019-01-04T16:37:59.222Z,10.70
2019-01-04T16:40:27.672Z,15.45
2019-01-04T16:42:56.134Z,11.12
2019-01-04T16:45:24.591Z,14.10
2019-01-04T16:47:55.582Z,13.70
2019-01-04T16:50:24.121Z,16.00
2019-01-04T16:52:52.591Z,12.73
2019-01-04T16:55:21.043Z,17.23
2019-01-04T16:57:49.503Z,21.75
2019-01-04T17:00:17.972Z,16.15
2019-01-04T17:02:46.418Z,19.77
2019-01-04T17:05:14.890Z,19.80
2019-01-04T17:07:43.331Z,13.65
2019-01-04T17:10:11.800Z,18.45
2019-01-04T17:12:40.282Z,12.78
2019-01-04T17:15:08.786Z,16.52
2019-01-04T17:17:37.228Z,19.10
2019-01-04T17:20:06.155Z,19.62
2019-01-04T17:22:34.604Z,18.32
2019-01-04T17:25:03.085Z,13.60
2019-01-04T17:27:31.895Z,16.17
2019-01-04T17:30:00.372Z,14.83
2019-01-04T17:32:28.838Z,11.35
2019-01-04T17:34:57.321Z,18.80
2019-01-04T17:37:25.802Z,14.33
2019-01-04T17:39:54.247Z,15.43
2019-01-04T17:42:22.719Z,10.70
2019-01-04T17:44:51.182Z,11.68
2019-01-04T17:47:19.644Z,14.53
2019-01-04T17:49:48.109Z,15.50
2019-01-04T17:52:16.572Z,17.05
2019-01-04T17:54:45.038Z,14.10
2019-01-04T17:57:13.510Z,14.58
2019-01-04T17:59:41.983Z,14.58
2019-01-04T18:02:10.520Z,19.52
2019-01-04T18:04:38.963Z,14.70
2019-01-04T18:07:07.440Z,14.87
2019-01-04T18:09:35.953Z,18.87
2019-01-04T18:12:04.421Z,14.68
2019-01-04T18:14:32.870Z,18.77
2019-01-04T18:17:01.339Z,18.92
2019-01-04T18:19:29.772Z,17.15
2019-01-04T18:21:58.230Z,10.80
2019-01-04T18:24:26.708Z,12.60
2019-01-04T18:26:55.203Z,13.93
2019-01-04T18:29:23.670Z,18.25
2019-01-04T18:31:52.133Z,16.95
2019-01-04T18:34:20.720Z,19.48
2019-01-04T18:36:49.260Z,12.70
2019-01-04T18:39:17.732Z,15.48
2019-01-04T18:41:46.193Z,16.37
2019-01-04T18:44:14.678Z,16.45
2019-01-04T18:46:43.125Z,12.33
2019-01-04T18:49:11.629Z,8.70
2019-01-04T18:51:40.115Z,14.47
2019-01-04T18:54:08.584Z,16.75
2019-01-04T18:56:37.102Z,14.28
2019-01-04T18:59:05.561Z,11.83
2019-01-04T19:01:34.019Z,16.85
2019-01-04T19:04:02.501Z,19.02
2019-01-04T19:06:31.287Z,11.48
2019-01-04T19:08:59.831Z,18.70
2019-01-04T19:11:28.670Z,19.87
2019-01-04T19:13:57.147Z,17.07
2019-01-04T19:16:25.607Z,16.95
2019-01-04T19:18:54.100Z,16.87
2019-01-04T19:21:22.545Z,11.50
2019-01-04T19:23:51.108Z,8.83
2019-01-04T19:26:19.582Z,16.27
2019-01-04T19:28:48.076Z,22.22
2019-01-04T19:31:16.516Z,13.15
2019-01-04T19:33:46.092Z,19.48
2019-01-04T19:36:14.551Z,14.65
2019-01-04T19:38:43.036Z,12.20
2019-01-04T19:41:11.520Z,15.68
2019-01-04T19:43:40.007Z,11.78
2019-01-04T19:46:08.481Z,13.58
2019-01-04T19:48:36.986Z,19.05
2019-01-04T19:51:05.763Z,13.83
2019-01-04T19:53:34.251Z,15.30
2019-01-04T19:56:02.723Z,17.05
2019-01-04T19:58:31.171Z,13.75
2019-01-04T20:00:59.685Z,18.25
2019-01-04T20:03:29.680Z,12.85
2019-01-04T20:06:11.569Z,15.58
2019-01-04T20:09:26.675Z,14.15
2019-01-04T20:12:39.124Z,16.87
2019-01-04T20:15:34.094Z,14.28
2019-01-04T20:18:05.351Z,17.50
2019-01-04T20:20:47.826Z,19.98
2019-01-04T20:23:26.649Z,11.70
2019-01-04T20:26:12.967Z,18.17
2019-01-04T20:28:52.057Z,22.90
2019-01-04T20:31:38.470Z,13.03
2019-01-04T20:34:08.653Z,15.15
2019-01-04T20:36:56.205Z,16.48
2019-01-04T20:39:38.411Z,15.00
2019-01-04T20:42:24.842Z,19.62
2019-01-04T20:44:54.977Z,13.93
2019-01-04T20:47:27.551Z,14.30
2019-01-04T20:50:00.548Z,13.65
2019-01-04T20:52:45.518Z,14.55
2019-01-04T20:55:24.455Z,19.52
2019-01-04T20:57:57.407Z,21.05
2019-01-04T21:00:43.661Z,17.98
2019-01-04T21:03:29.448Z,19.95
2019-01-04T21:06:08.558Z,16.05
2019-01-04T21:08:47.529Z,17.05
2019-01-04T21:11:17.996Z,21.68
2019-01-04T21:14:04.187Z,16.10
2019-01-04T21:16:49.332Z,13.58
2019-01-04T21:19:35.507Z,19.62
2019-01-04T21:22:17.766Z,18.07
2019-01-04T21:24:47.878Z,16.90
2019-01-04T21:27:34.272Z,18.00
2019-01-04T21:30:20.691Z,16.15
2019-01-04T21:33:07.283Z,13.60
2019-01-04T21:35:52.484Z,15.08
2019-01-04T21:38:31.191Z,18.60
2019-01-04T21:41:03.775Z,18.82
2019-01-04T21:43:33.911Z,15.45
2019-01-04T21:46:20.238Z,16.90
2019-01-04T21:49:06.862Z,21.50
2019-01-04T21:51:39.957Z,23.02
2019-01-04T21:54:26.410Z,20.45
2019-01-04T21:57:12.496Z,23.85
2019-01-04T21:59:58.785Z,18.10
2019-01-04T22:02:34.861Z,18.62
2019-01-04T22:05:13.964Z,18.70
2019-01-04T22:07:59.295Z,17.65
2019-01-04T22:10:35.245Z,17.82
2019-01-04T22:13:20.451Z,20.10
2019-01-04T22:15:50.565Z,19.82
2019-01-04T22:18:23.369Z,21.97
2019-01-04T22:20:56.167Z,23.80
2019-01-04T22:23:28.912Z,20.72
2019-01-04T22:26:15.327Z,15.93
2019-01-04T22:28:45.456Z,17.42
2019-01-04T22:31:24.701Z,14.10
2019-01-04T22:34:03.811Z,20.45
2019-01-04T22:36:33.932Z,16.42
2019-01-04T22:39:06.479Z,19.10
2019-01-04T22:41:48.441Z,20.62
2019-01-04T22:44:35.986Z,13.83
2019-01-04T22:47:08.773Z,15.00
2019-01-04T22:49:57.112Z,16.77
2019-01-04T22:52:39.352Z,17.30
2019-01-04T22:55:12.056Z,18.73
2019-01-04T22:58:00.454Z,15.95
2019-01-04T23:00:46.039Z,15.78
2019-01-04T23:03:34.168Z,16.15
2019-01-04T23:06:04.301Z,14.07
2019-01-04T23:08:49.400Z,12.18
2019-01-04T23:11:22.229Z,16.23
2019-01-04T23:14:08.718Z,12.58
2019-01-04T23:16:38.821Z,13.43
2019-01-04T23:19:08.948Z,11.45
2019-01-04T23:21:59.472Z,12.43
2019-01-04T23:24:29.576Z,11.83
2019-01-04T23:27:15.894Z,13.05
2019-01-04T23:30:00.932Z,16.02
2019-01-04T23:32:33.672Z,14.60
2019-01-04T23:35:19.112Z,16.77
2019-01-04T23:37:52.386Z,10.58
2019-01-04T23:40:22.511Z,14.07
2019-01-04T23:43:01.356Z,12.00
2019-01-04T23:45:32.454Z,11.55
2019-01-04T23:48:05.521Z,8.43
2019-01-04T23:50:35.763Z,10.43
2019-01-04T23:53:22.247Z,12.18
2019-01-04T23:55:55.056Z,11.63
2019-01-04T23:58:30.672Z,9.65
